This is the latest recevied weather packets stored in our database for station/object 9W2CEW-1. If no packets are shown the sender has not sent any weather packets the latest 10 day(s).
| Time | Temp. | Humidity | Pressure | Rain* | Wind** | Luminosity | Snow |
|---|---|---|---|---|---|---|---|
| 1787959413 | 38.33° C | 42% | 1004.8 hPa | - | - | - | - |
| 1787958513 | 37.78° C | 44% | 1005.1 hPa | - | - | - | - |
| 1787957613 | 37.22° C | 45% | 1005.1 hPa | - | - | - | - |
| 1787956712 | 38.33° C | 42% | 1005 hPa | - | - | - | - |
| 1787955812 | 38.33° C | 42% | 1005 hPa | - | - | - | - |
| 1787954912 | 39.44° C | 39% | 1004.9 hPa | - | - | - | - |
| 1787954012 | 39.44° C | 39% | 1004.7 hPa | - | - | - | - |
| 1787953112 | 38.33° C | 41% | 1004.5 hPa | - | - | - | - |
| 1787952212 | 36.67° C | 44% | 1004.5 hPa | - | - | - | - |
| 1787951312 | 37.78° C | 42% | 1004.4 hPa | - | - | - | - |
| 1787950412 | 37.22° C | 43% | 1004.4 hPa | - | - | - | - |
| 1787949841 | 36.67° C | 42% | 1002.5 hPa | - | - | - | - |
| 1787949512 | 36.67° C | 44% | 1004.2 hPa | - | - | - | - |
| 1787948612 | 36.67° C | 45% | 1004.1 hPa | - | - | - | - |
| 1787947713 | 36.11° C | 45% | 1004.2 hPa | - | - | - | - |
| 1787946813 | 35.56° C | 46% | 1004.2 hPa | - | - | - | - |
| 1787945913 | 37.22° C | 44% | 1004.1 hPa | - | - | - | - |
| 1787945013 | 37.78° C | 43% | 1004.3 hPa | - | - | - | - |
| 1787944113 | 37.78° C | 42% | 1004.4 hPa | - | - | - | - |
| 1787943213 | 36.67° C | 45% | 1004.5 hPa | - | - | - | - |
| 1787942313 | 37.22° C | 44% | 1004.7 hPa | - | - | - | - |
| 1787941413 | 38.33° C | 42% | 1004.8 hPa | - | - | - | - |
| 1787940513 | 38.33° C | 41% | 1005 hPa | - | - | - | - |
| 1787940187 | 37.78° C | 41% | 1002.6 hPa | - | - | - | - |
| 1787939613 | 36.67° C | 46% | 1005.4 hPa | - | - | - | - |
* Rain since midnight (hover to see other rain measurements)
** Current wind speed in m/s (hover to see current wind gust speed)